sensor_id;sensor_type;location;lat;lon;timestamp;pressure;altitude;pressure_sealevel;temperature;humidity
42945;BME280;28584;42.636;23.294;2023-05-31T00:00:20;162243.00;;;13.84;100.00
42945;BME280;28584;42.636;23.294;2023-05-31T00:02:46;162249.69;;;13.87;100.00
42945;BME280;28584;42.636;23.294;2023-05-31T00:05:11;162245.66;;;13.85;100.00
42945;BME280;28584;42.636;23.294;2023-05-31T00:07:37;162255.06;;;13.89;100.00
42945;BME280;28584;42.636;23.294;2023-05-31T00:10:02;162273.81;;;13.96;100.00
42945;BME280;28584;42.636;23.294;2023-05-31T00:12:28;162276.47;;;13.97;100.00
42945;BME280;28584;42.636;23.294;2023-05-31T00:14:53;162279.13;;;13.98;100.00
42945;BME280;28584;42.636;23.294;2023-05-31T00:17:18;162264.41;;;13.93;100.00
42945;BME280;28584;42.636;23.294;2023-05-31T00:19:44;162263.09;;;13.92;100.00
42945;BME280;28584;42.636;23.294;2023-05-31T00:22:10;162232.28;;;13.80;100.00
42945;BME280;28584;42.636;23.294;2023-05-31T00:24:36;162212.19;;;13.73;100.00
42945;BME280;28584;42.636;23.294;2023-05-31T00:27:01;162247.03;;;13.86;100.00
42945;BME280;28584;42.636;23.294;2023-05-31T00:29:28;162251.03;;;13.88;100.00
42945;BME280;28584;42.636;23.294;2023-05-31T00:31:54;162241.63;;;13.84;100.00
42945;BME280;28584;42.636;23.294;2023-05-31T00:34:19;162212.19;;;13.73;100.00
42945;BME280;28584;42.636;23.294;2023-05-31T00:36:45;162220.22;;;13.76;100.00
42945;BME280;28584;42.636;23.294;2023-05-31T00:39:10;162237.63;;;13.82;100.00
42945;BME280;28584;42.636;23.294;2023-05-31T00:41:36;162245.66;;;13.85;100.00
42945;BME280;28584;42.636;23.294;2023-05-31T00:44:01;162261.75;;;13.92;100.00
42945;BME280;28584;42.636;23.294;2023-05-31T00:46:32;162267.13;;;13.94;100.00
42945;BME280;28584;42.636;23.294;2023-05-31T00:48:58;162259.09;;;13.91;100.00
42945;BME280;28584;42.636;23.294;2023-05-31T00:51:24;162255.06;;;13.89;100.00
42945;BME280;28584;42.636;23.294;2023-05-31T00:53:51;162264.41;;;13.93;100.00
42945;BME280;28584;42.636;23.294;2023-05-31T00:56:18;162234.97;;;13.81;100.00
42945;BME280;28584;42.636;23.294;2023-05-31T00:58:44;162228.28;;;13.79;100.00
42945;BME280;28584;42.636;23.294;2023-05-31T01:01:12;162225.59;;;13.78;100.00
42945;BME280;28584;42.636;23.294;2023-05-31T01:03:39;162245.66;;;13.85;100.00
42945;BME280;28584;42.636;23.294;2023-05-31T01:06:04;162230.94;;;13.80;100.00
42945;BME280;28584;42.636;23.294;2023-05-31T01:08:30;162234.97;;;13.81;100.00
42945;BME280;28584;42.636;23.294;2023-05-31T01:11:01;162234.97;;;13.81;100.00
42945;BME280;28584;42.636;23.294;2023-05-31T01:16:32;162226.91;;;13.78;100.00
42945;BME280;28584;42.636;23.294;2023-05-31T01:19:04;162230.94;;;13.80;100.00
42945;BME280;28584;42.636;23.294;2023-05-31T01:21:51;162236.31;;;13.82;100.00
42945;BME280;28584;42.636;23.294;2023-05-31T01:24:34;162252.34;;;13.88;100.00
42945;BME280;28584;42.636;23.294;2023-05-31T01:27:06;162272.44;;;13.96;100.00
42945;BME280;28584;42.636;23.294;2023-05-31T01:29:33;162257.72;;;13.90;100.00
42945;BME280;28584;42.636;23.294;2023-05-31T01:32:00;162260.38;;;13.91;100.00
42945;BME280;28584;42.636;23.294;2023-05-31T01:34:27;162273.81;;;13.96;100.00
42945;BME280;28584;42.636;23.294;2023-05-31T01:36:52;162283.16;;;14.00;100.00
42945;BME280;28584;42.636;23.294;2023-05-31T01:39:19;162287.19;;;14.01;100.00
42945;BME280;28584;42.636;23.294;2023-05-31T01:41:45;162273.81;;;13.96;100.00
42945;BME280;28584;42.636;23.294;2023-05-31T01:44:13;162276.47;;;13.97;100.00
42945;BME280;28584;42.636;23.294;2023-05-31T01:46:41;162287.19;;;14.01;100.00
42945;BME280;28584;42.636;23.294;2023-05-31T01:49:08;162295.22;;;14.04;100.00
42945;BME280;28584;42.636;23.294;2023-05-31T01:51:36;162300.59;;;14.06;100.00
42945;BME280;28584;42.636;23.294;2023-05-31T01:54:03;162305.94;;;14.08;100.00
42945;BME280;28584;42.636;23.294;2023-05-31T01:56:30;162304.63;;;14.08;100.00
42945;BME280;28584;42.636;23.294;2023-05-31T01:58:56;162304.63;;;14.08;100.00
42945;BME280;28584;42.636;23.294;2023-05-31T02:01:23;162292.56;;;14.03;100.00
42945;BME280;28584;42.636;23.294;2023-05-31T02:03:50;162287.19;;;14.01;100.00
42945;BME280;28584;42.636;23.294;2023-05-31T02:06:18;162243.00;;;13.84;100.00
42945;BME280;28584;42.636;23.294;2023-05-31T02:08:43;162237.63;;;13.82;100.00
42945;BME280;28584;42.636;23.294;2023-05-31T02:11:09;162247.03;;;13.86;100.00
42945;BME280;28584;42.636;23.294;2023-05-31T02:13:35;162243.00;;;13.84;100.00
42945;BME280;28584;42.636;23.294;2023-05-31T02:16:01;162265.78;;;13.93;100.00
42945;BME280;28584;42.636;23.294;2023-05-31T02:18:29;162263.09;;;13.92;100.00
42945;BME280;28584;42.636;23.294;2023-05-31T02:20:55;162253.72;;;13.88;100.00
42945;BME280;28584;42.636;23.294;2023-05-31T02:23:21;162265.78;;;13.93;100.00
42945;BME280;28584;42.636;23.294;2023-05-31T02:25:47;162269.78;;;13.95;100.00
42945;BME280;28584;42.636;23.294;2023-05-31T02:28:13;162271.16;;;13.95;100.00
42945;BME280;28584;42.636;23.294;2023-05-31T02:30:39;162277.84;;;13.98;100.00
42945;BME280;28584;42.636;23.294;2023-05-31T02:33:06;162291.19;;;14.03;100.00
42945;BME280;28584;42.636;23.294;2023-05-31T02:35:32;162287.19;;;14.01;100.00
42945;BME280;28584;42.636;23.294;2023-05-31T02:37:58;162299.25;;;14.06;100.00
42945;BME280;28584;42.636;23.294;2023-05-31T02:40:24;162285.88;;;14.01;100.00
42945;BME280;28584;42.636;23.294;2023-05-31T02:42:49;162307.28;;;14.09;100.00
42945;BME280;28584;42.636;23.294;2023-05-31T02:45:15;162305.94;;;14.08;100.00
42945;BME280;28584;42.636;23.294;2023-05-31T02:47:40;162303.28;;;14.07;100.00
42945;BME280;28584;42.636;23.294;2023-05-31T02:50:07;162303.28;;;14.07;100.00
42945;BME280;28584;42.636;23.294;2023-05-31T02:52:34;162300.59;;;14.06;100.00
42945;BME280;28584;42.636;23.294;2023-05-31T02:54:59;162296.59;;;14.05;100.00
42945;BME280;28584;42.636;23.294;2023-05-31T02:57:25;162319.34;;;14.13;100.00
42945;BME280;28584;42.636;23.294;2023-05-31T02:59:54;162342.13;;;14.22;100.00
42945;BME280;28584;42.636;23.294;2023-05-31T03:02:21;162355.56;;;14.27;100.00
42945;BME280;28584;42.636;23.294;2023-05-31T03:04:46;162370.28;;;14.32;100.00
42945;BME280;28584;42.636;23.294;2023-05-31T03:07:12;162313.97;;;14.11;100.00
42945;BME280;28584;42.636;23.294;2023-05-31T03:09:37;162340.78;;;14.21;100.00
42945;BME280;28584;42.636;23.294;2023-05-31T03:12:03;162354.19;;;14.26;100.00
42945;BME280;28584;42.636;23.294;2023-05-31T03:14:28;162356.91;;;14.27;100.00
42945;BME280;28584;42.636;23.294;2023-05-31T03:16:54;162378.34;;;14.35;100.00
42945;BME280;28584;42.636;23.294;2023-05-31T03:19:20;162389.03;;;14.39;100.00
42945;BME280;28584;42.636;23.294;2023-05-31T03:21:46;162413.19;;;14.48;100.00
42945;BME280;28584;42.636;23.294;2023-05-31T03:24:11;162448.03;;;14.61;100.00
42945;BME280;28584;42.636;23.294;2023-05-31T03:26:36;162444.00;;;14.60;100.00
42945;BME280;28584;42.636;23.294;2023-05-31T03:29:02;162381.00;;;14.36;100.00
42945;BME280;28584;42.636;23.294;2023-05-31T03:31:27;162370.28;;;14.32;100.00
42945;BME280;28584;42.636;23.294;2023-05-31T03:33:55;162348.88;;;14.24;100.00
42945;BME280;28584;42.636;23.294;2023-05-31T03:36:21;162356.91;;;14.27;100.00
42945;BME280;28584;42.636;23.294;2023-05-31T03:38:47;162351.53;;;14.25;100.00
42945;BME280;28584;42.636;23.294;2023-05-31T03:41:12;162370.28;;;14.32;100.00
42945;BME280;28584;42.636;23.294;2023-05-31T03:43:37;162378.34;;;14.35;100.00
42945;BME280;28584;42.636;23.294;2023-05-31T03:46:03;162397.09;;;14.42;100.00
42945;BME280;28584;42.636;23.294;2023-05-31T03:48:28;162441.28;;;14.59;100.00
42945;BME280;28584;42.636;23.294;2023-05-31T03:50:55;162476.16;;;14.72;100.00
42945;BME280;28584;42.636;23.294;2023-05-31T03:53:20;162520.38;;;14.88;100.00
42945;BME280;28584;42.636;23.294;2023-05-31T03:55:46;162517.69;;;14.87;100.00
42945;BME280;28584;42.636;23.294;2023-05-31T03:58:11;162489.59;;;14.77;100.00
42945;BME280;28584;42.636;23.294;2023-05-31T04:00:38;162533.78;;;14.93;100.00
42945;BME280;28584;42.636;23.294;2023-05-31T04:03:03;162498.94;;;14.80;100.00
42945;BME280;28584;42.636;23.294;2023-05-31T04:05:28;162553.91;;;15.01;100.00
42945;BME280;28584;42.636;23.294;2023-05-31T04:07:54;162608.84;;;15.21;100.00
42945;BME280;28584;42.636;23.294;2023-05-31T04:10:19;162657.16;;;15.39;100.00
42945;BME280;28584;42.636;23.294;2023-05-31T04:12:45;162576.66;;;15.09;100.00
42945;BME280;28584;42.636;23.294;2023-05-31T04:15:10;162603.47;;;15.19;100.00
42945;BME280;28584;42.636;23.294;2023-05-31T04:17:36;162635.69;;;15.31;100.00
42945;BME280;28584;42.636;23.294;2023-05-31T04:20:01;162708.13;;;15.58;100.00
42945;BME280;28584;42.636;23.294;2023-05-31T04:22:29;162740.31;;;15.70;100.00
42945;BME280;28584;42.636;23.294;2023-05-31T04:24:54;162802.03;;;15.93;100.00
42945;BME280;28584;42.636;23.294;2023-05-31T04:27:20;162861.03;;;16.15;100.00
42945;BME280;28584;42.636;23.294;2023-05-31T04:29:45;162843.59;;;16.09;100.00
42945;BME280;28584;42.636;23.294;2023-05-31T04:32:11;162796.63;;;15.91;100.00
42945;BME280;28584;42.636;23.294;2023-05-31T04:34:40;162696.06;;;15.54;100.00
42945;BME280;28584;42.636;23.294;2023-05-31T04:37:06;162547.19;;;14.98;100.00
42945;BME280;28584;42.636;23.294;2023-05-31T04:39:32;162591.44;;;15.15;100.00
42945;BME280;28584;42.636;23.294;2023-05-31T04:41:58;162694.69;;;15.53;100.00
42945;BME280;28584;42.636;23.294;2023-05-31T04:44:24;162647.81;;;15.36;100.00
42945;BME280;28584;42.636;23.294;2023-05-31T04:46:50;162768.50;;;15.81;100.00
42945;BME280;28584;42.636;23.294;2023-05-31T04:49:15;162807.34;;;15.95;100.00
42945;BME280;28584;42.636;23.294;2023-05-31T04:51:41;162831.53;;;16.04;100.00
42945;BME280;28584;42.636;23.294;2023-05-31T04:54:06;162760.44;;;15.78;100.00
42945;BME280;28584;42.636;23.294;2023-05-31T04:56:32;162890.53;;;16.26;100.00
42945;BME280;28584;42.636;23.294;2023-05-31T04:58:58;162909.31;;;16.33;100.00
42945;BME280;28584;42.636;23.294;2023-05-31T05:01:23;163016.75;;;16.74;100.00
42945;BME280;28584;42.636;23.294;2023-05-31T05:03:50;163105.28;;;17.07;100.00
42945;BME280;28584;42.636;23.294;2023-05-31T05:06:16;163156.34;;;17.26;100.00
42945;BME280;28584;42.636;23.294;2023-05-31T05:08:45;163130.84;;;17.16;100.00
42945;BME280;28584;42.636;23.294;2023-05-31T05:11:11;163075.78;;;16.96;100.00
42945;BME280;28584;42.636;23.294;2023-05-31T05:13:37;163171.09;;;17.31;100.00
42945;BME280;28584;42.636;23.294;2023-05-31T05:16:02;163120.09;;;17.12;100.00
42945;BME280;28584;42.636;23.294;2023-05-31T05:18:31;163172.47;;;17.32;100.00
42945;BME280;28584;42.636;23.294;2023-05-31T05:20:57;163325.59;;;17.89;100.00
42945;BME280;28584;42.636;23.294;2023-05-31T05:23:23;163443.81;;;18.33;100.00
42945;BME280;28584;42.636;23.294;2023-05-31T05:25:49;163478.81;;;18.46;100.00
42945;BME280;28584;42.636;23.294;2023-05-31T05:28:14;163507.00;;;18.56;100.00
42945;BME280;28584;42.636;23.294;2023-05-31T05:30:40;163562.13;;;18.77;100.00
42945;BME280;28584;42.636;23.294;2023-05-31T05:33:05;163571.50;;;18.80;100.00
42945;BME280;28584;42.636;23.294;2023-05-31T05:35:31;163559.41;;;18.76;100.00
42945;BME280;28584;42.636;23.294;2023-05-31T05:37:56;163578.22;;;18.83;100.00
42945;BME280;28584;42.636;23.294;2023-05-31T05:40:23;163502.97;;;18.55;100.00
42945;BME280;28584;42.636;23.294;2023-05-31T05:42:48;163513.72;;;18.59;100.00
42945;BME280;28584;42.636;23.294;2023-05-31T05:45:14;163494.91;;;18.52;100.00
42945;BME280;28584;42.636;23.294;2023-05-31T05:47:39;163477.44;;;18.45;100.00
42945;BME280;28584;42.636;23.294;2023-05-31T05:50:06;163423.63;;;18.25;100.00
42945;BME280;28584;42.636;23.294;2023-05-31T05:52:31;163497.63;;;18.53;100.00
42945;BME280;28584;42.636;23.294;2023-05-31T05:54:57;163523.13;;;18.62;100.00
42945;BME280;28584;42.636;23.294;2023-05-31T05:57:22;163529.84;;;18.65;100.00
42945;BME280;28584;42.636;23.294;2023-05-31T05:59:50;163562.13;;;18.77;100.00
42945;BME280;28584;42.636;23.294;2023-05-31T06:02:15;163613.19;;;18.96;100.00
42945;BME280;28584;42.636;23.294;2023-05-31T06:04:40;163676.34;;;19.20;100.00
42945;BME280;28584;42.636;23.294;2023-05-31T06:07:07;163707.34;;;19.31;100.00
42945;BME280;28584;42.636;23.294;2023-05-31T06:09:32;163758.44;;;19.50;100.00
42945;BME280;28584;42.636;23.294;2023-05-31T06:11:58;163812.22;;;19.70;100.00
42945;BME280;28584;42.636;23.294;2023-05-31T06:14:23;163890.25;;;19.99;100.00
42945;BME280;28584;42.636;23.294;2023-05-31T06:16:48;163913.13;;;20.08;100.00
42945;BME280;28584;42.636;23.294;2023-05-31T06:19:14;163934.69;;;20.16;100.00
42945;BME280;28584;42.636;23.294;2023-05-31T06:21:39;163927.97;;;20.13;100.00
42945;BME280;28584;42.636;23.294;2023-05-31T06:24:05;163946.78;;;20.20;100.00
42945;BME280;28584;42.636;23.294;2023-05-31T06:26:30;163991.19;;;20.37;100.00
42945;BME280;28584;42.636;23.294;2023-05-31T06:28:56;164011.38;;;20.44;100.00
42945;BME280;28584;42.636;23.294;2023-05-31T06:31:25;163992.53;;;20.37;100.00
42945;BME280;28584;42.636;23.294;2023-05-31T06:33:51;163944.13;;;20.19;100.00
42945;BME280;28584;42.636;23.294;2023-05-31T06:36:16;163993.84;;;20.38;100.00
42945;BME280;28584;42.636;23.294;2023-05-31T06:38:42;163981.78;;;20.33;100.00
42945;BME280;28584;42.636;23.294;2023-05-31T06:41:07;163985.81;;;20.35;100.00
42945;BME280;28584;42.636;23.294;2023-05-31T06:43:32;164036.94;;;20.54;100.00
42945;BME280;28584;42.636;23.294;2023-05-31T06:45:58;164054.41;;;20.60;100.00
42945;BME280;28584;42.636;23.294;2023-05-31T06:48:23;164070.56;;;20.66;100.00
42945;BME280;28584;42.636;23.294;2023-05-31T06:50:49;164133.81;;;20.90;100.00
42945;BME280;28584;42.636;23.294;2023-05-31T06:53:14;164241.56;;;21.30;100.00
42945;BME280;28584;42.636;23.294;2023-05-31T06:55:39;164412.66;;;21.94;95.02
42945;BME280;28584;42.636;23.294;2023-05-31T06:58:05;164477.31;;;22.18;89.60
42945;BME280;28584;42.636;23.294;2023-05-31T07:00:42;164443.63;;;22.05;90.61
42945;BME280;28584;42.636;23.294;2023-05-31T07:03:08;164509.63;;;22.30;85.38
42945;BME280;28584;42.636;23.294;2023-05-31T07:05:34;164601.28;;;22.64;83.29
42945;BME280;28584;42.636;23.294;2023-05-31T07:08:00;164711.81;;;23.05;76.00
42945;BME280;28584;42.636;23.294;2023-05-31T07:10:25;164788.72;;;23.33;73.12
42945;BME280;28584;42.636;23.294;2023-05-31T07:12:52;164665.97;;;22.88;70.58
42945;BME280;28584;42.636;23.294;2023-05-31T07:15:18;164482.66;;;22.20;78.56
42945;BME280;28584;42.636;23.294;2023-05-31T07:17:44;164311.59;;;21.56;93.53
42945;BME280;28584;42.636;23.294;2023-05-31T07:20:09;164598.63;;;22.63;85.04
42945;BME280;28584;42.636;23.294;2023-05-31T07:22:35;164400.50;;;21.89;89.08
42945;BME280;28584;42.636;23.294;2023-05-31T07:25:01;164119.00;;;20.84;100.00
42945;BME280;28584;42.636;23.294;2023-05-31T07:27:26;164077.28;;;20.69;100.00
42945;BME280;28584;42.636;23.294;2023-05-31T07:29:51;164369.53;;;21.78;100.00
42945;BME280;28584;42.636;23.294;2023-05-31T07:32:17;164093.44;;;20.75;100.00
42945;BME280;28584;42.636;23.294;2023-05-31T07:34:42;164461.13;;;22.12;100.00
42945;BME280;28584;42.636;23.294;2023-05-31T07:37:08;164513.66;;;22.31;85.59
42945;BME280;28584;42.636;23.294;2023-05-31T07:39:33;164639.03;;;22.78;78.53
42945;BME280;28584;42.636;23.294;2023-05-31T07:41:58;164799.50;;;23.37;70.61
42945;BME280;28584;42.636;23.294;2023-05-31T07:44:24;164833.19;;;23.50;70.80
42945;BME280;28584;42.636;23.294;2023-05-31T07:46:50;164788.72;;;23.33;72.96
42945;BME280;28584;42.636;23.294;2023-05-31T07:49:15;164799.50;;;23.37;69.23
42945;BME280;28584;42.636;23.294;2023-05-31T07:51:41;164738.78;;;23.15;67.54
42945;BME280;28584;42.636;23.294;2023-05-31T07:54:06;164634.97;;;22.76;70.33
42945;BME280;28584;42.636;23.294;2023-05-31T07:56:32;164683.47;;;22.94;71.96
42945;BME280;28584;42.636;23.294;2023-05-31T07:58:57;164795.44;;;23.36;70.74
42945;BME280;28584;42.636;23.294;2023-05-31T08:01:23;164916.78;;;23.81;65.91
42945;BME280;28584;42.636;23.294;2023-05-31T08:03:48;165035.53;;;24.25;64.24
42945;BME280;28584;42.636;23.294;2023-05-31T08:06:16;165073.31;;;24.39;62.21
42945;BME280;28584;42.636;23.294;2023-05-31T08:08:42;164738.78;;;23.15;62.52
42945;BME280;28584;42.636;23.294;2023-05-31T08:11:08;164426.09;;;21.99;90.42
42945;BME280;28584;42.636;23.294;2023-05-31T08:13:33;164597.25;;;22.62;80.04
42945;BME280;28584;42.636;23.294;2023-05-31T08:15:59;164849.38;;;23.56;71.72
42945;BME280;28584;42.636;23.294;2023-05-31T08:18:24;165229.81;;;24.97;63.38
42945;BME280;28584;42.636;23.294;2023-05-31T08:20:50;165097.56;;;24.48;61.38
42945;BME280;28584;42.636;23.294;2023-05-31T08:23:19;164910.06;;;23.78;61.09
42945;BME280;28584;42.636;23.294;2023-05-31T08:25:45;165147.53;;;24.67;62.73
42945;BME280;28584;42.636;23.294;2023-05-31T08:28:11;165134.00;;;24.62;60.10
42945;BME280;28584;42.636;23.294;2023-05-31T08:30:36;165162.38;;;24.72;58.96
42945;BME280;28584;42.636;23.294;2023-05-31T08:33:03;165271.66;;;25.13;57.81
42945;BME280;28584;42.636;23.294;2023-05-31T08:35:29;165251.47;;;25.05;57.52
42945;BME280;28584;42.636;23.294;2023-05-31T08:37:55;165165.09;;;24.73;58.64
42945;BME280;28584;42.636;23.294;2023-05-31T08:40:21;165026.06;;;24.22;58.28
42945;BME280;28584;42.636;23.294;2023-05-31T08:45:11;165000.47;;;24.12;59.95
42945;BME280;28584;42.636;23.294;2023-05-31T08:47:45;165004.50;;;24.14;59.59
42945;BME280;28584;42.636;23.294;2023-05-31T08:50:16;164982.94;;;24.06;59.56
42945;BME280;28584;42.636;23.294;2023-05-31T08:52:43;165109.72;;;24.53;58.54
42945;BME280;28584;42.636;23.294;2023-05-31T08:55:10;164997.78;;;24.11;59.72
42945;BME280;28584;42.636;23.294;2023-05-31T08:57:37;164873.63;;;23.65;60.28
42945;BME280;28584;42.636;23.294;2023-05-31T09:00:03;164928.94;;;23.85;60.94
42945;BME280;28584;42.636;23.294;2023-05-31T09:02:36;165167.78;;;24.74;59.22
42945;BME280;28584;42.636;23.294;2023-05-31T09:05:02;165259.56;;;25.08;56.52
42945;BME280;28584;42.636;23.294;2023-05-31T09:07:29;165312.19;;;25.28;56.08
42945;BME280;28584;42.636;23.294;2023-05-31T09:09:54;165186.69;;;24.81;56.33
42945;BME280;28584;42.636;23.294;2023-05-31T09:12:20;165026.06;;;24.22;57.96
42945;BME280;28584;42.636;23.294;2023-05-31T09:14:46;164908.69;;;23.78;59.81
42945;BME280;28584;42.636;23.294;2023-05-31T09:17:12;164812.94;;;23.42;61.40
42945;BME280;28584;42.636;23.294;2023-05-31T09:19:49;164768.47;;;23.26;62.69
42945;BME280;28584;42.636;23.294;2023-05-31T09:22:15;164756.28;;;23.21;63.21
42945;BME280;28584;42.636;23.294;2023-05-31T09:24:49;164698.34;;;23.00;64.85
42945;BME280;28584;42.636;23.294;2023-05-31T09:27:15;164903.31;;;23.76;66.25
42945;BME280;28584;42.636;23.294;2023-05-31T09:29:42;165293.28;;;25.21;61.19
42945;BME280;28584;42.636;23.294;2023-05-31T09:32:09;165532.34;;;26.09;57.92
42945;BME280;28584;42.636;23.294;2023-05-31T09:34:35;165647.16;;;26.52;55.25
42945;BME280;28584;42.636;23.294;2023-05-31T09:37:01;165537.72;;;26.11;54.39
42945;BME280;28584;42.636;23.294;2023-05-31T09:39:27;165077.34;;;24.41;57.77
42945;BME280;28584;42.636;23.294;2023-05-31T09:41:52;164856.09;;;23.58;63.85
42945;BME280;28584;42.636;23.294;2023-05-31T09:44:18;164684.84;;;22.95;70.95
42945;BME280;28584;42.636;23.294;2023-05-31T09:46:47;164798.13;;;23.37;67.56
42945;BME280;28584;42.636;23.294;2023-05-31T09:49:12;164869.56;;;23.63;65.82
42945;BME280;28584;42.636;23.294;2023-05-31T09:51:38;164915.41;;;23.80;64.34
42945;BME280;28584;42.636;23.294;2023-05-31T09:54:13;164633.66;;;22.76;67.37
42945;BME280;28584;42.636;23.294;2023-05-31T09:56:40;164512.34;;;22.31;79.16
42945;BME280;28584;42.636;23.294;2023-05-31T09:59:07;164480.00;;;22.19;75.44
42945;BME280;28584;42.636;23.294;2023-05-31T10:01:33;164329.09;;;21.63;75.47
42945;BME280;28584;42.636;23.294;2023-05-31T10:03:58;164380.28;;;21.82;79.68
42945;BME280;28584;42.636;23.294;2023-05-31T10:06:25;164401.88;;;21.90;76.77
42945;BME280;28584;42.636;23.294;2023-05-31T10:08:50;164498.84;;;22.26;72.72
42945;BME280;28584;42.636;23.294;2023-05-31T10:11:18;164568.97;;;22.52;70.64
42945;BME280;28584;42.636;23.294;2023-05-31T10:13:47;164682.16;;;22.94;71.65
42945;BME280;28584;42.636;23.294;2023-05-31T10:16:15;164752.22;;;23.20;68.15
42945;BME280;28584;42.636;23.294;2023-05-31T10:18:44;164752.22;;;23.20;67.01
42945;BME280;28584;42.636;23.294;2023-05-31T10:21:20;164803.53;;;23.39;65.42
42945;BME280;28584;42.636;23.294;2023-05-31T10:24:04;164838.59;;;23.52;62.35
42945;BME280;28584;42.636;23.294;2023-05-31T10:26:39;164960.00;;;23.97;62.96
42945;BME280;28584;42.636;23.294;2023-05-31T10:29:15;165192.03;;;24.83;60.02
42945;BME280;28584;42.636;23.294;2023-05-31T10:31:47;165402.69;;;25.61;57.26
42945;BME280;28584;42.636;23.294;2023-05-31T10:34:25;165470.16;;;25.86;55.21
42945;BME280;28584;42.636;23.294;2023-05-31T10:36:53;165418.91;;;25.67;56.22
42945;BME280;28584;42.636;23.294;2023-05-31T10:39:27;165321.66;;;25.31;56.05
42945;BME280;28584;42.636;23.294;2023-05-31T10:42:09;165247.41;;;25.04;58.07
42945;BME280;28584;42.636;23.294;2023-05-31T10:47:32;165000.47;;;24.12;58.54
42945;BME280;28584;42.636;23.294;2023-05-31T10:50:00;165159.69;;;24.71;56.62
42945;BME280;28584;42.636;23.294;2023-05-31T10:52:29;165200.16;;;24.86;56.08
42945;BME280;28584;42.636;23.294;2023-05-31T10:55:23;165237.94;;;25.00;56.14
42945;BME280;28584;42.636;23.294;2023-05-31T10:57:55;165514.78;;;26.03;54.26
42945;BME280;28584;42.636;23.294;2023-05-31T11:00:22;165721.50;;;26.80;51.69
42945;BME280;28584;42.636;23.294;2023-05-31T11:02:50;165839.09;;;27.23;49.47
42945;BME280;28584;42.636;23.294;2023-05-31T11:07:47;165648.50;;;26.52;49.57
42945;BME280;28584;42.636;23.294;2023-05-31T11:10:24;165586.38;;;26.29;48.25
42945;BME280;28584;42.636;23.294;2023-05-31T11:12:50;165447.22;;;25.78;48.51
42945;BME280;28584;42.636;23.294;2023-05-31T11:15:16;165362.19;;;25.46;50.46
42945;BME280;28584;42.636;23.294;2023-05-31T11:17:52;165252.78;;;25.06;50.24
42945;BME280;28584;42.636;23.294;2023-05-31T11:20:18;165344.63;;;25.40;50.90
42945;BME280;28584;42.636;23.294;2023-05-31T11:22:44;165472.91;;;25.87;49.23
42945;BME280;28584;42.636;23.294;2023-05-31T11:25:18;165647.16;;;26.52;44.67
42945;BME280;28584;42.636;23.294;2023-05-31T11:27:45;165956.69;;;27.67;44.96
42945;BME280;28584;42.636;23.294;2023-05-31T11:30:14;166422.09;;;29.39;41.16
42945;BME280;28584;42.636;23.294;2023-05-31T11:32:54;166384.19;;;29.25;40.66
42945;BME280;28584;42.636;23.294;2023-05-31T11:35:19;166005.38;;;27.85;46.27
42945;BME280;28584;42.636;23.294;2023-05-31T11:37:45;165606.63;;;26.37;49.01
42945;BME280;28584;42.636;23.294;2023-05-31T11:40:12;165495.88;;;25.96;50.42
42945;BME280;28584;42.636;23.294;2023-05-31T11:42:40;165435.06;;;25.73;51.66
42945;BME280;28584;42.636;23.294;2023-05-31T11:45:14;165402.69;;;25.61;52.56
42945;BME280;28584;42.636;23.294;2023-05-31T11:50:25;165201.53;;;24.87;53.69
42945;BME280;28584;42.636;23.294;2023-05-31T11:52:51;165027.44;;;24.22;54.31
42945;BME280;28584;42.636;23.294;2023-05-31T11:55:20;164895.22;;;23.73;55.62
42945;BME280;28584;42.636;23.294;2023-05-31T11:57:47;164827.78;;;23.48;56.03
42945;BME280;28584;42.636;23.294;2023-05-31T12:00:17;164776.56;;;23.29;56.81
42945;BME280;28584;42.636;23.294;2023-05-31T12:02:51;164559.53;;;22.48;58.76
42945;BME280;28584;42.636;23.294;2023-05-31T12:05:18;164485.41;;;22.21;60.63
42945;BME280;28584;42.636;23.294;2023-05-31T12:07:45;164473.25;;;22.16;62.58
42945;BME280;28584;42.636;23.294;2023-05-31T12:10:11;164291.41;;;21.48;71.17
42945;BME280;28584;42.636;23.294;2023-05-31T12:12:38;164163.50;;;21.01;91.97
42945;BME280;28584;42.636;23.294;2023-05-31T12:15:05;164276.59;;;21.43;88.57
42945;BME280;28584;42.636;23.294;2023-05-31T12:17:31;164374.94;;;21.80;84.06
42945;BME280;28584;42.636;23.294;2023-05-31T12:19:57;164269.88;;;21.40;83.41
42945;BME280;28584;42.636;23.294;2023-05-31T12:22:24;164338.50;;;21.66;75.77
42945;BME280;28584;42.636;23.294;2023-05-31T12:24:53;164327.72;;;21.62;74.91
42945;BME280;28584;42.636;23.294;2023-05-31T12:27:21;164399.16;;;21.89;71.20
42945;BME280;28584;42.636;23.294;2023-05-31T12:29:46;164498.84;;;22.26;67.94
42945;BME280;28584;42.636;23.294;2023-05-31T12:32:12;164537.94;;;22.40;64.63
42945;BME280;28584;42.636;23.294;2023-05-31T12:34:38;164641.69;;;22.79;62.86
42945;BME280;28584;42.636;23.294;2023-05-31T12:37:09;164714.50;;;23.06;63.96
42945;BME280;28584;42.636;23.294;2023-05-31T12:39:35;164839.91;;;23.52;61.80
42945;BME280;28584;42.636;23.294;2023-05-31T12:42:02;164825.09;;;23.47;60.13
42945;BME280;28584;42.636;23.294;2023-05-31T12:44:30;164728.00;;;23.11;63.56
42945;BME280;28584;42.636;23.294;2023-05-31T12:47:01;164555.44;;;22.47;66.88